sensor_id;sensor_type;location;lat;lon;timestamp;temperature;humidity
10129;DHT22;5104;50.720;7.044;2023-04-01T00:01:31;11.50;1.00
10129;DHT22;5104;50.720;7.044;2023-04-01T00:03:58;11.50;1.00
10129;DHT22;5104;50.720;7.044;2023-04-01T00:06:27;11.50;1.00
10129;DHT22;5104;50.720;7.044;2023-04-01T00:08:54;11.50;1.00
10129;DHT22;5104;50.720;7.044;2023-04-01T00:11:21;11.50;1.00
10129;DHT22;5104;50.720;7.044;2023-04-01T00:13:48;11.40;1.00
10129;DHT22;5104;50.720;7.044;2023-04-01T00:16:15;11.40;1.00
10129;DHT22;5104;50.720;7.044;2023-04-01T00:18:43;11.40;1.00
10129;DHT22;5104;50.720;7.044;2023-04-01T00:21:12;11.40;1.00
10129;DHT22;5104;50.720;7.044;2023-04-01T00:23:39;11.40;1.00
10129;DHT22;5104;50.720;7.044;2023-04-01T00:26:06;11.40;1.00
10129;DHT22;5104;50.720;7.044;2023-04-01T00:28:34;11.40;1.00
10129;DHT22;5104;50.720;7.044;2023-04-01T00:31:04;11.40;1.00
10129;DHT22;5104;50.720;7.044;2023-04-01T00:33:32;11.40;1.00
10129;DHT22;5104;50.720;7.044;2023-04-01T00:36:08;11.40;1.00
10129;DHT22;5104;50.720;7.044;2023-04-01T00:38:35;11.30;1.00
10129;DHT22;5104;50.720;7.044;2023-04-01T00:41:02;11.30;1.00
10129;DHT22;5104;50.720;7.044;2023-04-01T00:43:30;11.30;1.00
10129;DHT22;5104;50.720;7.044;2023-04-01T00:45:57;11.30;1.00
10129;DHT22;5104;50.720;7.044;2023-04-01T00:48:26;11.30;1.00
10129;DHT22;5104;50.720;7.044;2023-04-01T00:50:57;11.30;1.00
10129;DHT22;5104;50.720;7.044;2023-04-01T00:53:28;11.30;1.00
10129;DHT22;5104;50.720;7.044;2023-04-01T00:56:01;11.30;1.00
10129;DHT22;5104;50.720;7.044;2023-04-01T00:58:32;11.30;1.00
10129;DHT22;5104;50.720;7.044;2023-04-01T01:01:00;11.30;1.00
10129;DHT22;5104;50.720;7.044;2023-04-01T01:03:27;11.30;1.00
10129;DHT22;5104;50.720;7.044;2023-04-01T01:06:07;11.30;1.00
10129;DHT22;5104;50.720;7.044;2023-04-01T01:08:45;11.40;1.00
10129;DHT22;5104;50.720;7.044;2023-04-01T01:11:22;11.40;1.00
10129;DHT22;5104;50.720;7.044;2023-04-01T01:13:54;11.30;1.00
10129;DHT22;5104;50.720;7.044;2023-04-01T01:16:25;11.30;1.00
10129;DHT22;5104;50.720;7.044;2023-04-01T01:18:57;11.30;1.00
10129;DHT22;5104;50.720;7.044;2023-04-01T01:21:40;11.30;1.00
10129;DHT22;5104;50.720;7.044;2023-04-01T01:27:03;11.30;1.00
10129;DHT22;5104;50.720;7.044;2023-04-01T01:29:50;11.30;1.00
10129;DHT22;5104;50.720;7.044;2023-04-01T01:32:41;11.20;1.00
10129;DHT22;5104;50.720;7.044;2023-04-01T01:35:24;11.30;1.00
10129;DHT22;5104;50.720;7.044;2023-04-01T01:37:56;11.20;1.00
10129;DHT22;5104;50.720;7.044;2023-04-01T01:40:25;11.20;1.00
10129;DHT22;5104;50.720;7.044;2023-04-01T01:42:55;11.20;1.00
10129;DHT22;5104;50.720;7.044;2023-04-01T01:45:25;11.20;1.00
10129;DHT22;5104;50.720;7.044;2023-04-01T01:47:53;11.20;1.00
10129;DHT22;5104;50.720;7.044;2023-04-01T01:50:24;11.20;1.00
10129;DHT22;5104;50.720;7.044;2023-04-01T01:53:03;11.20;1.00
10129;DHT22;5104;50.720;7.044;2023-04-01T01:55:32;11.20;1.00
10129;DHT22;5104;50.720;7.044;2023-04-01T01:58:04;11.20;1.00
10129;DHT22;5104;50.720;7.044;2023-04-01T02:00:32;11.10;1.00
10129;DHT22;5104;50.720;7.044;2023-04-01T02:03:00;11.10;1.00
10129;DHT22;5104;50.720;7.044;2023-04-01T02:05:29;11.10;1.00
10129;DHT22;5104;50.720;7.044;2023-04-01T02:08:02;11.10;1.00
10129;DHT22;5104;50.720;7.044;2023-04-01T02:10:34;11.10;1.00
10129;DHT22;5104;50.720;7.044;2023-04-01T02:13:07;11.20;1.00
10129;DHT22;5104;50.720;7.044;2023-04-01T02:15:40;11.20;1.00
10129;DHT22;5104;50.720;7.044;2023-04-01T02:18:08;11.20;1.00
10129;DHT22;5104;50.720;7.044;2023-04-01T02:20:37;11.20;1.00
10129;DHT22;5104;50.720;7.044;2023-04-01T02:23:06;11.20;1.00
10129;DHT22;5104;50.720;7.044;2023-04-01T02:25:35;11.10;1.00
10129;DHT22;5104;50.720;7.044;2023-04-01T02:28:04;11.10;1.00
10129;DHT22;5104;50.720;7.044;2023-04-01T02:30:34;11.10;99.90
10129;DHT22;5104;50.720;7.044;2023-04-01T02:33:03;11.10;99.90
10129;DHT22;5104;50.720;7.044;2023-04-01T02:35:32;11.00;1.00
10129;DHT22;5104;50.720;7.044;2023-04-01T02:38:01;11.00;1.00
10129;DHT22;5104;50.720;7.044;2023-04-01T02:40:28;11.00;99.90
10129;DHT22;5104;50.720;7.044;2023-04-01T02:42:55;11.00;1.00
10129;DHT22;5104;50.720;7.044;2023-04-01T02:45:22;10.90;1.00
10129;DHT22;5104;50.720;7.044;2023-04-01T02:47:48;10.90;1.00
10129;DHT22;5104;50.720;7.044;2023-04-01T02:50:16;10.90;1.00
10129;DHT22;5104;50.720;7.044;2023-04-01T02:52:42;10.90;1.00
10129;DHT22;5104;50.720;7.044;2023-04-01T02:55:11;10.90;1.00
10129;DHT22;5104;50.720;7.044;2023-04-01T02:57:38;10.90;1.00
10129;DHT22;5104;50.720;7.044;2023-04-01T03:00:06;10.80;99.90
10129;DHT22;5104;50.720;7.044;2023-04-01T03:02:37;10.80;99.90
10129;DHT22;5104;50.720;7.044;2023-04-01T03:05:05;10.80;14.30
10129;DHT22;5104;50.720;7.044;2023-04-01T03:07:32;10.80;99.90
10129;DHT22;5104;50.720;7.044;2023-04-01T03:09:59;10.70;99.90
10129;DHT22;5104;50.720;7.044;2023-04-01T03:12:28;10.70;1.00
10129;DHT22;5104;50.720;7.044;2023-04-01T03:14:54;10.70;99.90
10129;DHT22;5104;50.720;7.044;2023-04-01T03:17:21;10.70;1.00
10129;DHT22;5104;50.720;7.044;2023-04-01T03:19:48;10.60;1.00
10129;DHT22;5104;50.720;7.044;2023-04-01T03:22:17;10.60;1.00
10129;DHT22;5104;50.720;7.044;2023-04-01T03:24:46;10.60;1.00
10129;DHT22;5104;50.720;7.044;2023-04-01T03:27:13;10.60;99.90
10129;DHT22;5104;50.720;7.044;2023-04-01T03:29:41;10.60;99.90
10129;DHT22;5104;50.720;7.044;2023-04-01T03:32:08;10.60;99.90
10129;DHT22;5104;50.720;7.044;2023-04-01T03:34:35;10.60;99.90
10129;DHT22;5104;50.720;7.044;2023-04-01T03:37:02;10.60;99.90
10129;DHT22;5104;50.720;7.044;2023-04-01T03:39:29;10.60;1.00
10129;DHT22;5104;50.720;7.044;2023-04-01T03:41:57;10.60;1.00
10129;DHT22;5104;50.720;7.044;2023-04-01T03:44:24;10.60;1.00
10129;DHT22;5104;50.720;7.044;2023-04-01T03:46:52;10.70;1.00
10129;DHT22;5104;50.720;7.044;2023-04-01T03:49:19;10.70;1.00
10129;DHT22;5104;50.720;7.044;2023-04-01T03:51:45;10.70;1.00
10129;DHT22;5104;50.720;7.044;2023-04-01T03:54:12;10.70;1.00
10129;DHT22;5104;50.720;7.044;2023-04-01T03:56:39;10.80;1.00
10129;DHT22;5104;50.720;7.044;2023-04-01T03:59:07;10.80;1.00
10129;DHT22;5104;50.720;7.044;2023-04-01T04:01:35;10.80;1.00
10129;DHT22;5104;50.720;7.044;2023-04-01T04:04:03;10.80;1.00
10129;DHT22;5104;50.720;7.044;2023-04-01T04:06:32;10.80;99.90
10129;DHT22;5104;50.720;7.044;2023-04-01T04:08:59;10.80;1.00
10129;DHT22;5104;50.720;7.044;2023-04-01T04:11:26;10.80;1.00
10129;DHT22;5104;50.720;7.044;2023-04-01T04:13:53;10.80;99.90
10129;DHT22;5104;50.720;7.044;2023-04-01T04:16:20;10.80;1.00
10129;DHT22;5104;50.720;7.044;2023-04-01T04:18:47;10.80;99.90
10129;DHT22;5104;50.720;7.044;2023-04-01T04:21:15;10.90;99.90
10129;DHT22;5104;50.720;7.044;2023-04-01T04:23:42;10.90;99.90
10129;DHT22;5104;50.720;7.044;2023-04-01T04:26:11;10.90;99.90
10129;DHT22;5104;50.720;7.044;2023-04-01T04:28:38;10.80;99.90
10129;DHT22;5104;50.720;7.044;2023-04-01T04:31:05;10.90;1.00
10129;DHT22;5104;50.720;7.044;2023-04-01T04:33:33;10.80;1.00
10129;DHT22;5104;50.720;7.044;2023-04-01T04:36:02;10.80;1.00
10129;DHT22;5104;50.720;7.044;2023-04-01T04:38:30;10.80;1.00
10129;DHT22;5104;50.720;7.044;2023-04-01T04:40:58;10.80;1.00
10129;DHT22;5104;50.720;7.044;2023-04-01T04:43:25;10.80;1.00
10129;DHT22;5104;50.720;7.044;2023-04-01T04:45:52;10.80;1.00
10129;DHT22;5104;50.720;7.044;2023-04-01T04:48:19;10.80;1.00
10129;DHT22;5104;50.720;7.044;2023-04-01T04:50:47;10.80;1.00
10129;DHT22;5104;50.720;7.044;2023-04-01T04:53:15;10.80;1.00
10129;DHT22;5104;50.720;7.044;2023-04-01T04:55:48;10.80;1.00
10129;DHT22;5104;50.720;7.044;2023-04-01T04:58:15;10.70;1.00
10129;DHT22;5104;50.720;7.044;2023-04-01T05:00:42;10.70;99.90
10129;DHT22;5104;50.720;7.044;2023-04-01T05:03:10;10.60;99.90
10129;DHT22;5104;50.720;7.044;2023-04-01T05:05:37;10.60;1.00
10129;DHT22;5104;50.720;7.044;2023-04-01T05:08:04;10.60;1.00
10129;DHT22;5104;50.720;7.044;2023-04-01T05:10:32;10.60;1.00
10129;DHT22;5104;50.720;7.044;2023-04-01T05:13:00;10.50;99.90
10129;DHT22;5104;50.720;7.044;2023-04-01T05:15:27;10.50;96.10
10129;DHT22;5104;50.720;7.044;2023-04-01T05:17:54;10.50;1.00
10129;DHT22;5104;50.720;7.044;2023-04-01T05:20:20;10.40;1.00
10129;DHT22;5104;50.720;7.044;2023-04-01T05:22:47;10.40;1.00
10129;DHT22;5104;50.720;7.044;2023-04-01T05:25:14;10.40;1.00
10129;DHT22;5104;50.720;7.044;2023-04-01T05:27:42;10.40;1.00
10129;DHT22;5104;50.720;7.044;2023-04-01T05:30:11;10.40;1.00
10129;DHT22;5104;50.720;7.044;2023-04-01T05:32:38;10.40;99.90
10129;DHT22;5104;50.720;7.044;2023-04-01T05:35:06;10.50;1.00
10129;DHT22;5104;50.720;7.044;2023-04-01T05:37:33;10.50;1.00
10129;DHT22;5104;50.720;7.044;2023-04-01T05:40:00;10.50;1.00
10129;DHT22;5104;50.720;7.044;2023-04-01T05:42:27;10.50;1.00
10129;DHT22;5104;50.720;7.044;2023-04-01T05:44:54;10.50;1.00
10129;DHT22;5104;50.720;7.044;2023-04-01T05:47:23;10.50;99.90
10129;DHT22;5104;50.720;7.044;2023-04-01T05:49:50;10.50;1.00
10129;DHT22;5104;50.720;7.044;2023-04-01T05:52:17;10.50;1.00
10129;DHT22;5104;50.720;7.044;2023-04-01T05:54:44;10.50;1.00
10129;DHT22;5104;50.720;7.044;2023-04-01T05:57:10;10.50;1.00
10129;DHT22;5104;50.720;7.044;2023-04-01T05:59:37;10.50;99.90
10129;DHT22;5104;50.720;7.044;2023-04-01T06:02:04;10.60;1.00
10129;DHT22;5104;50.720;7.044;2023-04-01T06:04:38;10.60;1.00
10129;DHT22;5104;50.720;7.044;2023-04-01T06:07:10;10.70;83.90
10129;DHT22;5104;50.720;7.044;2023-04-01T06:09:37;10.80;99.90
10129;DHT22;5104;50.720;7.044;2023-04-01T06:12:19;10.80;99.90
10129;DHT22;5104;50.720;7.044;2023-04-01T06:14:56;10.80;1.00
10129;DHT22;5104;50.720;7.044;2023-04-01T06:17:34;10.80;1.00
10129;DHT22;5104;50.720;7.044;2023-04-01T06:20:13;10.90;99.90
10129;DHT22;5104;50.720;7.044;2023-04-01T06:22:56;10.80;1.00
10129;DHT22;5104;50.720;7.044;2023-04-01T06:31:20;10.80;1.00
10129;DHT22;5104;50.720;7.044;2023-04-01T06:33:59;10.90;1.00
10129;DHT22;5104;50.720;7.044;2023-04-01T06:36:49;11.00;99.90
10129;DHT22;5104;50.720;7.044;2023-04-01T06:39:43;11.00;99.90
10129;DHT22;5104;50.720;7.044;2023-04-01T06:42:24;11.10;99.90
10129;DHT22;5104;50.720;7.044;2023-04-01T06:45:05;11.20;1.00
10129;DHT22;5104;50.720;7.044;2023-04-01T06:47:45;11.20;1.00
10129;DHT22;5104;50.720;7.044;2023-04-01T06:50:21;11.20;99.70
10129;DHT22;5104;50.720;7.044;2023-04-01T06:52:59;11.20;59.60
10129;DHT22;5104;50.720;7.044;2023-04-01T06:55:34;11.30;99.90
10129;DHT22;5104;50.720;7.044;2023-04-01T06:58:05;11.30;1.00
10129;DHT22;5104;50.720;7.044;2023-04-01T07:00:35;11.30;99.90
10129;DHT22;5104;50.720;7.044;2023-04-01T07:03:08;11.20;99.90
10129;DHT22;5104;50.720;7.044;2023-04-01T07:05:37;11.30;1.00
10129;DHT22;5104;50.720;7.044;2023-04-01T07:08:10;11.20;99.90
10129;DHT22;5104;50.720;7.044;2023-04-01T07:10:43;11.30;1.00
10129;DHT22;5104;50.720;7.044;2023-04-01T07:13:16;11.40;1.00
10129;DHT22;5104;50.720;7.044;2023-04-01T07:15:57;11.60;99.90
10129;DHT22;5104;50.720;7.044;2023-04-01T07:18:32;11.80;1.00
10129;DHT22;5104;50.720;7.044;2023-04-01T07:21:01;11.80;99.90
10129;DHT22;5104;50.720;7.044;2023-04-01T07:23:36;11.90;1.00
10129;DHT22;5104;50.720;7.044;2023-04-01T07:26:11;12.00;99.90
10129;DHT22;5104;50.720;7.044;2023-04-01T07:28:40;12.00;1.00
10129;DHT22;5104;50.720;7.044;2023-04-01T07:31:15;12.20;1.00
10129;DHT22;5104;50.720;7.044;2023-04-01T07:33:51;12.30;99.90
10129;DHT22;5104;50.720;7.044;2023-04-01T07:36:26;12.30;99.90
10129;DHT22;5104;50.720;7.044;2023-04-01T07:39:06;12.40;99.90
10129;DHT22;5104;50.720;7.044;2023-04-01T07:41:42;12.30;99.90
10129;DHT22;5104;50.720;7.044;2023-04-01T07:44:16;12.20;1.00
10129;DHT22;5104;50.720;7.044;2023-04-01T07:46:59;12.20;1.00
10129;DHT22;5104;50.720;7.044;2023-04-01T07:49:33;12.10;1.00
10129;DHT22;5104;50.720;7.044;2023-04-01T07:52:08;12.20;1.00
10129;DHT22;5104;50.720;7.044;2023-04-01T07:54:43;12.20;99.90
10129;DHT22;5104;50.720;7.044;2023-04-01T07:57:17;12.20;1.00
10129;DHT22;5104;50.720;7.044;2023-04-01T07:59:50;12.20;99.90
10129;DHT22;5104;50.720;7.044;2023-04-01T08:02:28;12.10;99.90
10129;DHT22;5104;50.720;7.044;2023-04-01T08:05:04;12.10;99.90
10129;DHT22;5104;50.720;7.044;2023-04-01T08:07:40;12.30;1.00
10129;DHT22;5104;50.720;7.044;2023-04-01T08:10:17;12.10;99.90
10129;DHT22;5104;50.720;7.044;2023-04-01T08:12:54;12.20;1.00
10129;DHT22;5104;50.720;7.044;2023-04-01T08:15:27;12.10;99.90
10129;DHT22;5104;50.720;7.044;2023-04-01T08:18:03;12.20;99.90
10129;DHT22;5104;50.720;7.044;2023-04-01T08:20:36;12.30;99.90
10129;DHT22;5104;50.720;7.044;2023-04-01T08:23:10;12.40;25.10
10129;DHT22;5104;50.720;7.044;2023-04-01T08:25:44;12.50;1.00
10129;DHT22;5104;50.720;7.044;2023-04-01T08:28:17;12.50;99.90
10129;DHT22;5104;50.720;7.044;2023-04-01T08:30:49;12.50;99.90
10129;DHT22;5104;50.720;7.044;2023-04-01T08:33:21;12.50;1.00
10129;DHT22;5104;50.720;7.044;2023-04-01T08:35:52;12.50;1.00
10129;DHT22;5104;50.720;7.044;2023-04-01T08:38:24;12.50;99.90
10129;DHT22;5104;50.720;7.044;2023-04-01T08:44:21;12.50;1.00
10129;DHT22;5104;50.720;7.044;2023-04-01T08:50:36;12.70;99.90
10129;DHT22;5104;50.720;7.044;2023-04-01T08:53:09;12.80;99.90
10129;DHT22;5104;50.720;7.044;2023-04-01T08:55:43;12.90;1.00
10129;DHT22;5104;50.720;7.044;2023-04-01T08:58:44;12.90;99.90
10129;DHT22;5104;50.720;7.044;2023-04-01T09:01:25;12.60;1.00
10129;DHT22;5104;50.720;7.044;2023-04-01T09:04:08;12.50;1.00
10129;DHT22;5104;50.720;7.044;2023-04-01T09:06:48;12.20;99.90
10129;DHT22;5104;50.720;7.044;2023-04-01T09:13:26;12.00;1.00
10129;DHT22;5104;50.720;7.044;2023-04-01T09:16:18;11.90;1.00
10129;DHT22;5104;50.720;7.044;2023-04-01T09:19:06;12.00;99.90
10129;DHT22;5104;50.720;7.044;2023-04-01T09:21:55;12.00;1.00
10129;DHT22;5104;50.720;7.044;2023-04-01T09:27:28;12.00;1.00
10129;DHT22;5104;50.720;7.044;2023-04-01T09:30:32;12.00;99.90
10129;DHT22;5104;50.720;7.044;2023-04-01T09:33:41;11.90;1.00
10129;DHT22;5104;50.720;7.044;2023-04-01T09:36:17;11.90;1.00
10129;DHT22;5104;50.720;7.044;2023-04-01T09:38:56;12.00;99.90
10129;DHT22;5104;50.720;7.044;2023-04-01T09:41:29;12.30;1.00
10129;DHT22;5104;50.720;7.044;2023-04-01T09:44:03;12.60;1.00
10129;DHT22;5104;50.720;7.044;2023-04-01T09:46:44;12.80;1.00
10129;DHT22;5104;50.720;7.044;2023-04-01T09:52:18;13.10;1.00
10129;DHT22;5104;50.720;7.044;2023-04-01T09:54:58;13.20;1.00
10129;DHT22;5104;50.720;7.044;2023-04-01T09:57:40;13.20;1.00
10129;DHT22;5104;50.720;7.044;2023-04-01T10:00:38;13.20;1.00
10129;DHT22;5104;50.720;7.044;2023-04-01T10:16:01;13.50;99.90
10129;DHT22;5104;50.720;7.044;2023-04-01T10:19:01;13.60;99.90
10129;DHT22;5104;50.720;7.044;2023-04-01T10:21:57;14.10;1.00
10129;DHT22;5104;50.720;7.044;2023-04-01T10:24:53;13.90;1.00
10129;DHT22;5104;50.720;7.044;2023-04-01T10:27:39;14.10;1.00
10129;DHT22;5104;50.720;7.044;2023-04-01T10:34:05;14.30;1.00
10129;DHT22;5104;50.720;7.044;2023-04-01T10:36:47;14.10;1.00
10129;DHT22;5104;50.720;7.044;2023-04-01T10:39:38;14.10;1.00
10129;DHT22;5104;50.720;7.044;2023-04-01T10:42:32;14.30;1.00
10129;DHT22;5104;50.720;7.044;2023-04-01T10:45:27;14.30;1.00
10129;DHT22;5104;50.720;7.044;2023-04-01T10:48:32;14.20;1.00
10129;DHT22;5104;50.720;7.044;2023-04-01T10:51:17;13.90;1.00
10129;DHT22;5104;50.720;7.044;2023-04-01T10:54:17;13.60;1.00
10129;DHT22;5104;50.720;7.044;2023-04-01T10:56:51;13.50;99.90
10129;DHT22;5104;50.720;7.044;2023-04-01T11:03:06;13.80;99.90
10129;DHT22;5104;50.720;7.044;2023-04-01T11:12:44;13.70;1.00
10129;DHT22;5104;50.720;7.044;2023-04-01T11:15:31;13.80;1.00
10129;DHT22;5104;50.720;7.044;2023-04-01T11:24:35;13.80;99.90
10129;DHT22;5104;50.720;7.044;2023-04-01T11:27:23;13.60;1.00
10129;DHT22;5104;50.720;7.044;2023-04-01T11:30:06;13.60;1.00
10129;DHT22;5104;50.720;7.044;2023-04-01T11:32:50;13.60;1.00
10129;DHT22;5104;50.720;7.044;2023-04-01T11:35:42;13.40;1.00
10129;DHT22;5104;50.720;7.044;2023-04-01T11:38:26;13.10;1.00
10129;DHT22;5104;50.720;7.044;2023-04-01T11:41:03;13.10;1.00
10129;DHT22;5104;50.720;7.044;2023-04-01T11:43:38;13.00;1.00
10129;DHT22;5104;50.720;7.044;2023-04-01T11:46:10;13.10;1.00
10129;DHT22;5104;50.720;7.044;2023-04-01T11:48:51;13.20;99.90
10129;DHT22;5104;50.720;7.044;2023-04-01T11:54:45;13.10;1.00
10129;DHT22;5104;50.720;7.044;2023-04-01T11:57:42;12.90;99.90
10129;DHT22;5104;50.720;7.044;2023-04-01T12:00:31;12.80;99.90
10129;DHT22;5104;50.720;7.044;2023-04-01T12:03:19;12.90;99.90
10129;DHT22;5104;50.720;7.044;2023-04-01T12:05:54;13.10;1.00
10129;DHT22;5104;50.720;7.044;2023-04-01T12:08:31;13.40;1.00
10129;DHT22;5104;50.720;7.044;2023-04-01T12:11:09;13.70;1.00
10129;DHT22;5104;50.720;7.044;2023-04-01T12:13:48;14.00;99.90
10129;DHT22;5104;50.720;7.044;2023-04-01T12:19:17;14.50;1.00
10129;DHT22;5104;50.720;7.044;2023-04-01T12:21:56;14.50;1.00
10129;DHT22;5104;50.720;7.044;2023-04-01T12:24:45;14.30;71.70
10129;DHT22;5104;50.720;7.044;2023-04-01T12:27:35;14.20;1.00
10129;DHT22;5104;50.720;7.044;2023-04-01T12:30:34;14.10;1.00
10129;DHT22;5104;50.720;7.044;2023-04-01T12:33:18;14.00;22.40
10129;DHT22;5104;50.720;7.044;2023-04-01T12:35:58;14.10;99.90
10129;DHT22;5104;50.720;7.044;2023-04-01T12:38:35;14.10;1.00
10129;DHT22;5104;50.720;7.044;2023-04-01T12:41:13;14.10;1.00
10129;DHT22;5104;50.720;7.044;2023-04-01T12:44:10;13.80;1.00
10129;DHT22;5104;50.720;7.044;2023-04-01T12:46:56;13.70;1.00
10129;DHT22;5104;50.720;7.044;2023-04-01T12:49:34;13.60;1.00
10129;DHT22;5104;50.720;7.044;2023-04-01T12:52:10;13.60;99.90
10129;DHT22;5104;50.720;7.044;2023-04-01T12:55:00;13.70;1.00
10129;DHT22;5104;50.720;7.044;2023-04-01T12:57:48;13.80;1.00
10129;DHT22;5104;50.720;7.044;2023-04-01T13:00:42;13.90;1.00
10129;DHT22;5104;50.720;7.044;2023-04-01T13:03:19;13.60;99.90
10129;DHT22;5104;50.720;7.044;2023-04-01T13:06:08;13.50;99.90
10129;DHT22;5104;50.720;7.044;2023-04-01T13:08:44;13.40;99.90
10129;DHT22;5104;50.720;7.044;2023-04-01T13:11:21;13.20;1.00
10129;DHT22;5104;50.720;7.044;2023-04-01T13:16:55;13.10;1.00
10129;DHT22;5104;50.720;7.044;2023-04-01T13:19:28;13.00;99.90
10129;DHT22;5104;50.720;7.044;2023-04-01T13:22:04;13.10;99.90
10129;DHT22;5104;50.720;7.044;2023-04-01T13:24:43;13.20;1.00
10129;DHT22;5104;50.720;7.044;2023-04-01T13:27:23;13.30;1.00
10129;DHT22;5104;50.720;7.044;2023-04-01T13:30:04;13.60;1.00
10129;DHT22;5104;50.720;7.044;2023-04-01T13:32:43;14.00;1.00
10129;DHT22;5104;50.720;7.044;2023-04-01T13:35:23;14.30;1.00
10129;DHT22;5104;50.720;7.044;2023-04-01T13:38:11;14.70;1.00
10129;DHT22;5104;50.720;7.044;2023-04-01T13:40:47;14.80;99.90
10129;DHT22;5104;50.720;7.044;2023-04-01T13:43:19;15.20;1.00
10129;DHT22;5104;50.720;7.044;2023-04-01T13:46:08;15.20;1.00
10129;DHT22;5104;50.720;7.044;2023-04-01T13:48:56;15.40;1.00
10129;DHT22;5104;50.720;7.044;2023-04-01T13:51:48;15.20;1.00
10129;DHT22;5104;50.720;7.044;2023-04-01T13:54:32;14.90;4.30
10129;DHT22;5104;50.720;7.044;2023-04-01T13:57:16;15.00;1.00
10129;DHT22;5104;50.720;7.044;2023-04-01T13:59:59;14.70;99.90
10129;DHT22;5104;50.720;7.044;2023-04-01T14:02:59;14.40;99.90
10129;DHT22;5104;50.720;7.044;2023-04-01T14:08:33;14.50;99.90
10129;DHT22;5104;50.720;7.044;2023-04-01T14:11:13;14.80;99.90
10129;DHT22;5104;50.720;7.044;2023-04-01T14:13:52;15.00;99.90
10129;DHT22;5104;50.720;7.044;2023-04-01T14:16:39;14.80;99.90
10129;DHT22;5104;50.720;7.044;2023-04-01T14:19:14;14.90;99.90
10129;DHT22;5104;50.720;7.044;2023-04-01T14:21:53;15.10;41.70
10129;DHT22;5104;50.720;7.044;2023-04-01T14:24:36;15.10;27.60
10129;DHT22;5104;50.720;7.044;2023-04-01T14:27:31;15.00;1.00
10129;DHT22;5104;50.720;7.044;2023-04-01T14:30:20;15.10;1.00
10129;DHT22;5104;50.720;7.044;2023-04-01T14:32:59;15.00;1.00
10129;DHT22;5104;50.720;7.044;2023-04-01T14:35:37;14.90;1.00
10129;DHT22;5104;50.720;7.044;2023-04-01T14:38:27;15.00;1.00
10129;DHT22;5104;50.720;7.044;2023-04-01T14:40:58;15.00;1.00
10129;DHT22;5104;50.720;7.044;2023-04-01T14:43:47;14.80;1.00
10129;DHT22;5104;50.720;7.044;2023-04-01T14:47:11;14.70;99.90
10129;DHT22;5104;50.720;7.044;2023-04-01T14:49:49;14.60;99.90
10129;DHT22;5104;50.720;7.044;2023-04-01T14:52:24;14.60;99.90
10129;DHT22;5104;50.720;7.044;2023-04-01T14:54:52;14.50;99.90
10129;DHT22;5104;50.720;7.044;2023-04-01T14:57:24;14.20;99.90
10129;DHT22;5104;50.720;7.044;2023-04-01T14:59:54;14.30;99.90
10129;DHT22;5104;50.720;7.044;2023-04-01T15:02:44;14.20;99.90
10129;DHT22;5104;50.720;7.044;2023-04-01T15:05:20;14.20;99.90
10129;DHT22;5104;50.720;7.044;2023-04-01T15:08:03;14.30;99.90
10129;DHT22;5104;50.720;7.044;2023-04-01T15:10:53;14.10;99.90
10129;DHT22;5104;50.720;7.044;2023-04-01T15:13:35;14.20;99.90
10129;DHT22;5104;50.720;7.044;2023-04-01T15:16:11;14.00;1.00
10129;DHT22;5104;50.720;7.044;2023-04-01T15:18:48;14.10;1.00
10129;DHT22;5104;50.720;7.044;2023-04-01T15:21:57;14.30;1.00
10129;DHT22;5104;50.720;7.044;2023-04-01T15:24:30;14.40;99.90
10129;DHT22;5104;50.720;7.044;2023-04-01T15:27:27;14.40;99.90
10129;DHT22;5104;50.720;7.044;2023-04-01T15:30:14;14.30;99.90
10129;DHT22;5104;50.720;7.044;2023-04-01T15:32:54;14.20;99.90
10129;DHT22;5104;50.720;7.044;2023-04-01T15:35:34;14.20;99.90
10129;DHT22;5104;50.720;7.044;2023-04-01T15:38:06;14.10;1.00
10129;DHT22;5104;50.720;7.044;2023-04-01T15:40:42;14.00;1.00
10129;DHT22;5104;50.720;7.044;2023-04-01T15:43:20;13.70;1.00
10129;DHT22;5104;50.720;7.044;2023-04-01T15:45:58;13.30;99.90
10129;DHT22;5104;50.720;7.044;2023-04-01T15:48:46;13.00;1.00
10129;DHT22;5104;50.720;7.044;2023-04-01T15:51:27;12.90;82.40
10129;DHT22;5104;50.720;7.044;2023-04-01T15:54:21;13.00;99.90
10129;DHT22;5104;50.720;7.044;2023-04-01T15:57:03;13.10;99.90
10129;DHT22;5104;50.720;7.044;2023-04-01T15:59:47;13.10;99.90
10129;DHT22;5104;50.720;7.044;2023-04-01T16:02:24;13.20;99.90
10129;DHT22;5104;50.720;7.044;2023-04-01T16:04:58;13.30;1.00
10129;DHT22;5104;50.720;7.044;2023-04-01T16:07:43;13.30;1.00
10129;DHT22;5104;50.720;7.044;2023-04-01T16:10:30;13.20;99.90
10129;DHT22;5104;50.720;7.044;2023-04-01T16:13:11;13.20;99.90
10129;DHT22;5104;50.720;7.044;2023-04-01T16:15:47;13.00;1.00
10129;DHT22;5104;50.720;7.044;2023-04-01T16:18:30;12.90;1.00
10129;DHT22;5104;50.720;7.044;2023-04-01T16:21:02;12.90;1.00
10129;DHT22;5104;50.720;7.044;2023-04-01T16:23:37;12.60;1.00
10129;DHT22;5104;50.720;7.044;2023-04-01T16:26:15;12.60;99.90
10129;DHT22;5104;50.720;7.044;2023-04-01T16:28:53;12.60;1.00
10129;DHT22;5104;50.720;7.044;2023-04-01T16:31:31;12.70;1.00
10129;DHT22;5104;50.720;7.044;2023-04-01T16:34:02;12.50;1.00
10129;DHT22;5104;50.720;7.044;2023-04-01T16:36:36;12.50;99.90
10129;DHT22;5104;50.720;7.044;2023-04-01T16:39:29;12.50;99.90
10129;DHT22;5104;50.720;7.044;2023-04-01T16:42:26;12.50;1.00
10129;DHT22;5104;50.720;7.044;2023-04-01T16:44:58;12.40;99.90
10129;DHT22;5104;50.720;7.044;2023-04-01T16:47:30;12.40;99.90
10129;DHT22;5104;50.720;7.044;2023-04-01T16:50:00;12.50;1.00
10129;DHT22;5104;50.720;7.044;2023-04-01T16:52:42;12.50;1.00
10129;DHT22;5104;50.720;7.044;2023-04-01T16:55:16;12.50;1.00
10129;DHT22;5104;50.720;7.044;2023-04-01T16:57:49;12.50;1.00
10129;DHT22;5104;50.720;7.044;2023-04-01T17:00:24;12.40;1.00
10129;DHT22;5104;50.720;7.044;2023-04-01T17:03:01;12.30;1.00
10129;DHT22;5104;50.720;7.044;2023-04-01T17:05:43;12.20;1.00
10129;DHT22;5104;50.720;7.044;2023-04-01T17:08:21;12.10;99.90
10129;DHT22;5104;50.720;7.044;2023-04-01T17:10:53;12.00;99.90
10129;DHT22;5104;50.720;7.044;2023-04-01T17:13:35;11.90;1.00
10129;DHT22;5104;50.720;7.044;2023-04-01T17:16:24;11.80;1.00
10129;DHT22;5104;50.720;7.044;2023-04-01T17:19:01;11.70;1.00
10129;DHT22;5104;50.720;7.044;2023-04-01T17:21:45;11.60;99.90
10129;DHT22;5104;50.720;7.044;2023-04-01T17:24:27;11.50;99.90
10129;DHT22;5104;50.720;7.044;2023-04-01T17:27:05;11.40;1.00
10129;DHT22;5104;50.720;7.044;2023-04-01T17:29:59;11.40;99.90
10129;DHT22;5104;50.720;7.044;2023-04-01T17:32:38;11.40;99.90
10129;DHT22;5104;50.720;7.044;2023-04-01T17:35:12;11.40;99.90
10129;DHT22;5104;50.720;7.044;2023-04-01T17:37:48;11.40;1.00
10129;DHT22;5104;50.720;7.044;2023-04-01T17:40:31;11.30;99.90
10129;DHT22;5104;50.720;7.044;2023-04-01T17:43:06;11.30;99.90
10129;DHT22;5104;50.720;7.044;2023-04-01T17:45:44;11.30;99.90
10129;DHT22;5104;50.720;7.044;2023-04-01T17:48:21;11.30;1.00
10129;DHT22;5104;50.720;7.044;2023-04-01T17:51:07;11.20;99.90
10129;DHT22;5104;50.720;7.044;2023-04-01T17:53:44;11.20;93.10
10129;DHT22;5104;50.720;7.044;2023-04-01T17:56:30;11.20;1.00
10129;DHT22;5104;50.720;7.044;2023-04-01T17:59:05;11.10;1.00
10129;DHT22;5104;50.720;7.044;2023-04-01T18:01:45;11.10;99.90
10129;DHT22;5104;50.720;7.044;2023-04-01T18:04:42;11.10;99.90
10129;DHT22;5104;50.720;7.044;2023-04-01T18:07:49;11.00;95.60